Time;durP1;ratioP1;P1;durP2;ratioP2;P2;SDS_P1;SDS_P2;PMS_P1;PMS_P2;Temp;Humidity;BMP_temperature;BMP_pressure;BME280_temperature;BME280_humidity;BME280_pressure;Samples;Min_cycle;Max_cycle;Signal;HPM_P1;HPM_P2
2021/07/09 00:01:43;;;;;;;;;;;16.10;99.90;;;;;;5034244;28;19993;-75
2021/07/09 00:04:09;;;;;;;;;;;16.10;99.90;;;;;;5032069;28;19917;-75
2021/07/09 00:06:35;;;;;;;;;;;16.00;99.90;;;;;;5035419;28;19909;-81
2021/07/09 00:09:02;;;;;;;;;;;15.90;99.90;;;;;;5030652;28;19925;-75
2021/07/09 00:11:27;;;;;;;;;;;15.90;99.90;;;;;;5031462;28;20297;-75
2021/07/09 00:13:53;;;;;;;;;;;15.80;99.90;;;;;;5053332;28;19917;-75
2021/07/09 00:16:19;;;;;;;;;;;15.70;99.90;;;;;;5037323;28;19917;-79
2021/07/09 00:18:46;;;;;;;;;;;15.60;99.90;;;;;;5020541;28;19917;-76
2021/07/09 00:21:12;;;;;;;;;;;15.50;99.90;;;;;;5052809;28;19940;-75
2021/07/09 00:23:38;;;;;;;;;;;15.40;99.90;;;;;;5035681;28;19971;-75
2021/07/09 00:26:03;;;;;;;;;;;15.30;99.90;;;;;;5037140;28;19925;-75
2021/07/09 00:28:29;;;;;;;;;;;15.20;99.90;;;;;;5041078;28;19914;-76
2021/07/09 00:30:54;;;;;;;;;;;15.20;99.90;;;;;;5033457;28;19917;-76
2021/07/09 00:33:20;;;;;;;;;;;15.20;99.90;;;;;;5029447;28;19916;-76
2021/07/09 00:35:46;;;;;;;;;;;15.20;99.90;;;;;;5036172;28;19913;-80
2021/07/09 00:38:11;;;;;;;;;;;15.20;99.90;;;;;;5037809;28;19921;-75
2021/07/09 00:40:37;;;;;;;;;;;15.20;99.90;;;;;;5037790;28;20365;-75
2021/07/09 00:43:03;;;;;;;;;;;15.20;99.90;;;;;;5052166;28;20010;-76
2021/07/09 00:45:28;;;;;;;;;;;15.20;99.90;;;;;;5037061;28;19917;-75
2021/07/09 00:47:54;;;;;;;;;;;15.20;99.90;;;;;;5017886;28;19913;-75
2021/07/09 00:50:20;;;;;;;;;;;15.20;99.90;;;;;;5034645;28;19913;-76
2021/07/09 00:52:45;;;;;;;;;;;15.10;99.90;;;;;;5037861;28;19916;-76
2021/07/09 00:55:11;;;;;;;;;;;15.00;99.90;;;;;;5036003;28;20523;-76
2021/07/09 00:57:37;;;;;;;;;;;14.90;99.90;;;;;;5036908;28;20391;-75
2021/07/09 01:00:05;;;;;;;;;;;14.90;99.90;;;;;;5036574;28;19917;-76
2021/07/09 01:02:31;;;;;;;;;;;14.90;99.90;;;;;;5033944;28;20383;-75
2021/07/09 01:04:56;;;;;;;;;;;14.90;99.90;;;;;;5052821;28;19996;-77
2021/07/09 01:07:25;;;;;;;;;;;15.00;99.90;;;;;;5035280;28;19918;-75
2021/07/09 01:09:51;;;;;;;;;;;15.10;99.90;;;;;;5019363;28;19913;-75
2021/07/09 01:12:18;;;;;;;;;;;15.00;99.90;;;;;;5034989;28;20323;-77
2021/07/09 01:14:44;;;;;;;;;;;15.00;99.90;;;;;;5035469;28;19921;-75
2021/07/09 01:17:11;;;;;;;;;;;14.90;99.90;;;;;;5036562;28;20259;-75
2021/07/09 01:19:36;;;;;;;;;;;15.00;99.90;;;;;;5034606;28;19921;-76
2021/07/09 01:22:02;;;;;;;;;;;15.00;99.90;;;;;;5051811;28;19963;-76
2021/07/09 01:24:28;;;;;;;;;;;15.00;99.90;;;;;;5036936;28;19959;-76
2021/07/09 01:26:53;;;;;;;;;;;15.00;99.90;;;;;;5030534;28;19920;-76
2021/07/09 01:29:19;;;;;;;;;;;15.00;99.90;;;;;;5036321;28;19909;-76
2021/07/09 01:31:45;;;;;;;;;;;15.00;99.90;;;;;;5034245;28;19913;-75
2021/07/09 01:34:10;;;;;;;;;;;15.00;99.90;;;;;;5019187;28;19909;-75
2021/07/09 01:36:36;;;;;;;;;;;14.90;99.90;;;;;;5036369;28;19909;-75
2021/07/09 01:39:02;;;;;;;;;;;14.90;99.90;;;;;;5035475;28;19967;-76
2021/07/09 01:41:27;;;;;;;;;;;14.80;99.90;;;;;;5034809;28;20327;-75
2021/07/09 01:43:53;;;;;;;;;;;14.90;99.90;;;;;;5035888;28;19913;-76
2021/07/09 01:46:19;;;;;;;;;;;14.90;99.90;;;;;;5035838;28;19917;-75
2021/07/09 01:48:44;;;;;;;;;;;14.80;99.90;;;;;;5035701;28;20292;-81
2021/07/09 01:51:10;;;;;;;;;;;14.80;99.90;;;;;;5034172;28;19917;-76
2021/07/09 01:53:35;;;;;;;;;;;14.70;99.90;;;;;;5018260;28;19920;-75
2021/07/09 01:56:01;;;;;;;;;;;14.70;99.90;;;;;;5036751;28;20235;-76
2021/07/09 01:58:26;;;;;;;;;;;14.70;99.90;;;;;;5035765;28;19921;-75
2021/07/09 02:00:52;;;;;;;;;;;14.70;99.90;;;;;;5035649;28;19913;-77
2021/07/09 02:03:18;;;;;;;;;;;14.70;99.90;;;;;;5033895;28;20323;-75
2021/07/09 02:05:44;;;;;;;;;;;14.70;99.90;;;;;;5034741;28;20003;-75
2021/07/09 02:08:09;;;;;;;;;;;14.80;99.90;;;;;;5034501;28;20006;-76
2021/07/09 02:10:39;;;;;;;;;;;14.80;99.90;;;;;;5034592;28;19913;-75
2021/07/09 02:13:05;;;;;;;;;;;14.80;99.90;;;;;;5036045;28;19913;-75
2021/07/09 02:15:35;;;;;;;;;;;14.70;99.90;;;;;;5035639;28;19920;-75
2021/07/09 02:18:01;;;;;;;;;;;14.60;99.90;;;;;;5023210;28;19921;-76
2021/07/09 02:20:27;;;;;;;;;;;14.60;99.90;;;;;;5035450;28;20259;-75
2021/07/09 02:22:53;;;;;;;;;;;14.50;99.90;;;;;;5034564;28;20299;-74
2021/07/09 02:25:19;;;;;;;;;;;14.50;99.90;;;;;;5026145;28;19913;-75
2021/07/09 02:27:46;;;;;;;;;;;14.50;99.90;;;;;;5026867;28;19917;-74
2021/07/09 02:30:12;;;;;;;;;;;14.50;99.90;;;;;;5034023;28;19917;-75
2021/07/09 02:32:41;;;;;;;;;;;14.40;99.90;;;;;;5034887;28;19909;-74
2021/07/09 02:35:09;;;;;;;;;;;14.50;99.90;;;;;;5016950;28;19917;-75
2021/07/09 02:37:34;;;;;;;;;;;14.50;99.90;;;;;;5033818;28;19924;-75
2021/07/09 02:40:00;;;;;;;;;;;14.50;99.90;;;;;;5035087;28;20306;-76
2021/07/09 02:42:26;;;;;;;;;;;14.40;99.90;;;;;;5033740;28;20168;-75
2021/07/09 02:44:51;;;;;;;;;;;14.30;99.90;;;;;;5033691;28;19913;-75
2021/07/09 02:47:17;;;;;;;;;;;14.20;99.90;;;;;;5017136;28;20220;-75
2021/07/09 02:49:42;;;;;;;;;;;14.20;99.90;;;;;;5034004;28;19963;-75
2021/07/09 02:52:09;;;;;;;;;;;14.10;99.90;;;;;;5034146;28;19917;-75
2021/07/09 02:54:34;;;;;;;;;;;14.10;99.90;;;;;;5027930;28;19917;-75
2021/07/09 02:57:00;;;;;;;;;;;14.10;99.90;;;;;;5030128;28;20240;-75
2021/07/09 02:59:26;;;;;;;;;;;14.00;99.90;;;;;;5031606;28;19921;-76
2021/07/09 03:01:51;;;;;;;;;;;14.00;99.90;;;;;;5033150;28;20326;-75
2021/07/09 03:04:17;;;;;;;;;;;14.00;99.90;;;;;;5049060;28;19965;-75
2021/07/09 03:06:43;;;;;;;;;;;14.00;99.90;;;;;;5034508;28;19917;-75
2021/07/09 03:09:09;;;;;;;;;;;14.00;99.90;;;;;;5033405;28;20003;-75
2021/07/09 03:11:35;;;;;;;;;;;14.10;99.90;;;;;;5014758;28;19920;-75
2021/07/09 03:14:02;;;;;;;;;;;14.00;99.90;;;;;;5033210;28;20315;-76
2021/07/09 03:16:27;;;;;;;;;;;14.10;99.90;;;;;;5034857;28;19959;-75
2021/07/09 03:18:53;;;;;;;;;;;14.10;99.90;;;;;;5033974;28;20295;-74
2021/07/09 03:21:18;;;;;;;;;;;14.10;99.90;;;;;;5023453;28;19921;-76
2021/07/09 03:23:44;;;;;;;;;;;14.00;99.90;;;;;;5033811;28;20327;-75
2021/07/09 03:26:10;;;;;;;;;;;14.10;99.90;;;;;;5032974;28;19913;-75
2021/07/09 03:28:35;;;;;;;;;;;14.10;99.90;;;;;;5034779;28;20228;-75
2021/07/09 03:31:01;;;;;;;;;;;14.00;99.90;;;;;;5041575;28;19917;-74
2021/07/09 03:33:26;;;;;;;;;;;14.00;99.90;;;;;;5033317;28;20319;-75
2021/07/09 03:35:52;;;;;;;;;;;14.00;99.90;;;;;;5027576;28;20216;-76
2021/07/09 03:38:21;;;;;;;;;;;14.00;99.90;;;;;;5033890;28;20242;-75
2021/07/09 03:40:47;;;;;;;;;;;14.00;99.90;;;;;;5032896;28;19952;-81
2021/07/09 03:43:12;;;;;;;;;;;13.90;99.90;;;;;;5032917;28;19964;-75
2021/07/09 03:45:38;;;;;;;;;;;13.90;99.90;;;;;;5034197;28;20247;-75
2021/07/09 03:48:04;;;;;;;;;;;13.90;99.90;;;;;;5032755;28;19917;-75
2021/07/09 03:50:29;;;;;;;;;;;13.80;99.90;;;;;;5016997;28;20265;-77
2021/07/09 03:52:55;;;;;;;;;;;13.70;99.90;;;;;;5033868;28;19913;-77
2021/07/09 03:55:20;;;;;;;;;;;13.70;99.90;;;;;;5033135;28;20286;-75
2021/07/09 03:57:46;;;;;;;;;;;13.70;99.90;;;;;;5016709;28;19928;-75
2021/07/09 04:00:12;;;;;;;;;;;13.70;99.90;;;;;;5034000;28;19921;-74
2021/07/09 04:02:37;;;;;;;;;;;13.70;99.90;;;;;;5034290;28;19913;-80
2021/07/09 04:05:03;;;;;;;;;;;13.70;99.90;;;;;;5032390;28;19917;-76
2021/07/09 04:07:29;;;;;;;;;;;13.70;99.90;;;;;;5033446;28;19925;-74
2021/07/09 04:09:55;;;;;;;;;;;13.70;99.90;;;;;;5033927;28;20307;-74
2021/07/09 04:12:21;;;;;;;;;;;13.80;99.90;;;;;;5033354;28;19919;-75
2021/07/09 04:14:46;;;;;;;;;;;13.90;99.90;;;;;;5034379;28;19971;-75
2021/07/09 04:17:12;;;;;;;;;;;13.90;99.90;;;;;;5031054;28;19917;-75
2021/07/09 04:19:37;;;;;;;;;;;13.90;99.90;;;;;;5030838;28;19921;-75
2021/07/09 04:22:03;;;;;;;;;;;13.90;99.90;;;;;;5048892;28;19967;-75
2021/07/09 04:24:29;;;;;;;;;;;13.90;99.90;;;;;;5029403;28;19944;-80
2021/07/09 04:26:55;;;;;;;;;;;13.90;99.90;;;;;;5031308;28;20032;-75
2021/07/09 04:29:20;;;;;;;;;;;13.90;99.90;;;;;;5045005;28;19928;-74
2021/07/09 04:31:46;;;;;;;;;;;13.90;99.90;;;;;;5030205;28;19939;-74
2021/07/09 04:34:11;;;;;;;;;;;13.90;99.90;;;;;;5032466;28;19929;-75
2021/07/09 04:36:37;;;;;;;;;;;13.90;99.90;;;;;;5014292;28;19913;-77
2021/07/09 04:39:03;;;;;;;;;;;13.80;99.90;;;;;;5014177;28;20015;-75
2021/07/09 04:41:28;;;;;;;;;;;13.90;99.90;;;;;;5046324;28;20332;-75
2021/07/09 04:43:54;;;;;;;;;;;13.90;99.90;;;;;;5031661;28;19920;-74
2021/07/09 04:46:19;;;;;;;;;;;14.00;99.90;;;;;;5030781;28;20188;-75
2021/07/09 04:48:45;;;;;;;;;;;14.10;99.90;;;;;;5031327;28;20324;-77
2021/07/09 04:51:11;;;;;;;;;;;14.20;99.90;;;;;;5030558;28;20201;-76
2021/07/09 04:53:36;;;;;;;;;;;14.30;99.90;;;;;;5031759;28;19913;-74
2021/07/09 04:56:02;;;;;;;;;;;14.40;99.90;;;;;;5035348;28;19921;-74
2021/07/09 04:58:28;;;;;;;;;;;14.60;99.90;;;;;;5034659;28;19960;-80
2021/07/09 05:00:53;;;;;;;;;;;14.80;99.90;;;;;;5036124;28;19967;-78
2021/07/09 05:03:19;;;;;;;;;;;14.80;99.90;;;;;;5032915;28;19921;-75
2021/07/09 05:05:44;;;;;;;;;;;14.90;99.90;;;;;;5035799;28;19919;-77
2021/07/09 05:08:10;;;;;;;;;;;14.90;99.90;;;;;;5051724;28;19913;-75
2021/07/09 05:10:35;;;;;;;;;;;15.00;99.90;;;;;;5034956;28;19919;-76
2021/07/09 05:13:03;;;;;;;;;;;15.10;99.90;;;;;;5034961;28;19913;-75
2021/07/09 05:15:28;;;;;;;;;;;15.10;99.90;;;;;;5034784;28;20020;-75
2021/07/09 05:17:54;;;;;;;;;;;15.20;99.90;;;;;;5019614;28;20003;-75
2021/07/09 05:20:20;;;;;;;;;;;15.20;99.90;;;;;;5018750;28;20008;-77
2021/07/09 05:22:45;;;;;;;;;;;15.30;99.90;;;;;;5036174;28;19913;-75
2021/07/09 05:25:11;;;;;;;;;;;15.40;99.90;;;;;;5034371;28;19917;-75
2021/07/09 05:27:37;;;;;;;;;;;15.50;99.90;;;;;;5034697;28;19944;-75
2021/07/09 05:30:03;;;;;;;;;;;15.70;99.90;;;;;;5035352;28;20309;-80
2021/07/09 05:32:29;;;;;;;;;;;15.70;99.90;;;;;;5033914;28;19920;-75
2021/07/09 05:34:55;;;;;;;;;;;15.80;99.90;;;;;;5035230;28;19917;-76
2021/07/09 05:37:21;;;;;;;;;;;15.80;99.90;;;;;;5033980;28;20373;-75
2021/07/09 05:39:47;;;;;;;;;;;15.90;99.90;;;;;;5034321;28;20303;-77
2021/07/09 05:42:13;;;;;;;;;;;15.90;99.90;;;;;;5034909;28;19913;-74
2021/07/09 05:44:39;;;;;;;;;;;15.90;99.90;;;;;;5034356;28;19921;-76
2021/07/09 05:47:05;;;;;;;;;;;16.00;99.90;;;;;;5032027;28;19917;-76
2021/07/09 05:49:31;;;;;;;;;;;16.00;99.90;;;;;;5035249;28;19921;-80
2021/07/09 05:51:56;;;;;;;;;;;16.10;99.90;;;;;;5034851;28;19913;-76
2021/07/09 05:54:22;;;;;;;;;;;16.10;99.90;;;;;;5035201;28;19967;-75
2021/07/09 05:56:47;;;;;;;;;;;16.20;99.90;;;;;;5035349;28;19920;-76
2021/07/09 05:59:13;;;;;;;;;;;16.20;99.90;;;;;;5033770;28;19924;-79
2021/07/09 06:01:39;;;;;;;;;;;16.30;99.90;;;;;;5035018;28;19917;-77
2021/07/09 06:04:04;;;;;;;;;;;16.40;99.90;;;;;;5031363;28;19913;-79
2021/07/09 06:06:30;;;;;;;;;;;16.50;99.90;;;;;;5051098;28;19964;-78
2021/07/09 06:08:55;;;;;;;;;;;16.60;99.90;;;;;;5050155;28;20312;-75
2021/07/09 06:11:21;;;;;;;;;;;16.50;99.90;;;;;;5049169;28;20292;-79
2021/07/09 06:13:46;;;;;;;;;;;16.60;99.90;;;;;;5034873;28;20219;-76
2021/07/09 06:16:13;;;;;;;;;;;16.70;99.90;;;;;;5034332;28;19967;-75
2021/07/09 06:18:39;;;;;;;;;;;16.70;99.90;;;;;;5035292;28;20316;-82
2021/07/09 06:21:04;;;;;;;;;;;16.80;99.90;;;;;;5034534;28;19928;-75
2021/07/09 06:23:30;;;;;;;;;;;16.80;99.90;;;;;;5049366;28;20260;-82
2021/07/09 06:25:56;;;;;;;;;;;16.90;99.90;;;;;;5031778;28;19924;-80
2021/07/09 06:28:22;;;;;;;;;;;17.00;99.90;;;;;;5033163;28;19921;-75
2021/07/09 06:30:47;;;;;;;;;;;17.00;99.90;;;;;;5033701;28;19925;-76
2021/07/09 06:33:13;;;;;;;;;;;17.00;99.90;;;;;;5032880;28;20366;-75
2021/07/09 06:35:39;;;;;;;;;;;17.00;99.90;;;;;;5035385;28;20015;-81
2021/07/09 06:38:05;;;;;;;;;;;17.10;99.90;;;;;;5034730;28;20300;-80
2021/07/09 06:40:31;;;;;;;;;;;17.10;99.90;;;;;;5035667;28;19975;-78
2021/07/09 06:42:56;;;;;;;;;;;17.10;99.90;;;;;;5033284;28;20228;-76
2021/07/09 06:45:22;;;;;;;;;;;17.20;99.90;;;;;;5033666;28;20503;-76
2021/07/09 06:47:48;;;;;;;;;;;17.20;99.90;;;;;;5015592;28;19920;-79
2021/07/09 06:50:14;;;;;;;;;;;17.20;99.90;;;;;;5033685;28;19917;-75
2021/07/09 06:52:43;;;;;;;;;;;17.30;99.90;;;;;;5031602;28;20599;-75
2021/07/09 06:55:09;;;;;;;;;;;17.30;99.90;;;;;;5030712;28;19928;-81
2021/07/09 06:57:35;;;;;;;;;;;17.40;99.90;;;;;;5031805;28;19931;-79
2021/07/09 07:00:00;;;;;;;;;;;17.40;99.90;;;;;;5032372;28;19913;-81
2021/07/09 07:02:26;;;;;;;;;;;17.50;99.90;;;;;;5033208;28;20012;-78
2021/07/09 07:04:51;;;;;;;;;;;17.50;99.90;;;;;;5033083;28;19921;-75
2021/07/09 07:07:17;;;;;;;;;;;17.50;99.90;;;;;;5032323;28;19966;-76
2021/07/09 07:09:43;;;;;;;;;;;17.70;99.90;;;;;;5049008;28;19913;-80
2021/07/09 07:12:08;;;;;;;;;;;17.70;99.90;;;;;;5034181;28;19917;-76
2021/07/09 07:14:35;;;;;;;;;;;17.70;99.90;;;;;;5014794;28;20250;-77
2021/07/09 07:17:00;;;;;;;;;;;17.60;99.90;;;;;;5031221;28;19917;-79
2021/07/09 07:19:26;;;;;;;;;;;17.70;99.90;;;;;;5031864;28;19932;-78
2021/07/09 07:21:52;;;;;;;;;;;17.80;99.90;;;;;;5048964;28;19921;-80
2021/07/09 07:24:18;;;;;;;;;;;17.80;99.90;;;;;;5031777;28;19920;-76
2021/07/09 07:26:44;;;;;;;;;;;17.90;99.90;;;;;;5032725;28;20311;-76
2021/07/09 07:29:09;;;;;;;;;;;18.10;99.90;;;;;;5030329;28;19920;-76
2021/07/09 07:31:35;;;;;;;;;;;18.10;99.90;;;;;;5030139;28;19913;-75
2021/07/09 07:34:01;;;;;;;;;;;18.20;99.90;;;;;;5014651;28;19914;-77
2021/07/09 07:36:26;;;;;;;;;;;18.30;99.90;;;;;;5032141;28;20335;-75
2021/07/09 07:38:52;;;;;;;;;;;18.50;99.90;;;;;;5031833;28;20569;-76
2021/07/09 07:41:18;;;;;;;;;;;18.60;99.90;;;;;;5031464;28;19917;-77
2021/07/09 07:43:44;;;;;;;;;;;18.80;99.90;;;;;;5032114;28;20028;-81
2021/07/09 07:46:09;;;;;;;;;;;19.00;99.90;;;;;;5031993;28;19917;-77
2021/07/09 07:48:36;;;;;;;;;;;19.10;99.90;;;;;;5030961;28;20205;-76
2021/07/09 07:51:01;;;;;;;;;;;19.10;99.90;;;;;;5032496;28;19913;-79
2021/07/09 07:53:27;;;;;;;;;;;19.00;99.90;;;;;;5031326;28;19967;-78
2021/07/09 07:55:53;;;;;;;;;;;19.10;99.90;;;;;;5024143;28;19928;-80
2021/07/09 07:58:18;;;;;;;;;;;19.30;99.90;;;;;;5048379;28;19929;-79
2021/07/09 08:00:44;;;;;;;;;;;19.30;99.90;;;;;;5031726;28;19917;-80
2021/07/09 08:03:09;;;;;;;;;;;19.40;99.90;;;;;;5032528;28;19921;-76
2021/07/09 08:05:35;;;;;;;;;;;19.60;99.90;;;;;;5030506;28;19913;-80
2021/07/09 08:08:00;;;;;;;;;;;19.70;99.90;;;;;;5031762;28;19924;-76
2021/07/09 08:10:26;;;;;;;;;;;19.70;99.90;;;;;;5031713;28;20258;-80
2021/07/09 08:12:52;;;;;;;;;;;19.70;99.90;;;;;;5034112;28;19924;-80
2021/07/09 08:15:18;;;;;;;;;;;19.80;99.90;;;;;;5032503;28;19913;-76
2021/07/09 08:17:43;;;;;;;;;;;20.00;99.90;;;;;;5032825;28;19921;-79
2021/07/09 08:20:09;;;;;;;;;;;20.20;99.90;;;;;;5032401;28;20290;-76
2021/07/09 08:22:36;;;;;;;;;;;20.30;99.90;;;;;;5031387;28;19913;-76
2021/07/09 08:25:04;;;;;;;;;;;20.40;99.90;;;;;;5030993;28;19935;-76
2021/07/09 08:27:30;;;;;;;;;;;20.60;99.90;;;;;;5048338;28;20235;-78
2021/07/09 08:29:55;;;;;;;;;;;20.70;99.90;;;;;;5031706;28;19918;-82
2021/07/09 08:32:21;;;;;;;;;;;20.80;99.90;;;;;;5037435;28;19917;-78
2021/07/09 08:34:46;;;;;;;;;;;21.00;99.90;;;;;;5037120;28;19995;-76
2021/07/09 08:37:12;;;;;;;;;;;21.10;99.90;;;;;;5035579;28;20316;-77
2021/07/09 08:39:37;;;;;;;;;;;21.40;99.90;;;;;;5035554;28;19963;-83
2021/07/09 08:42:03;;;;;;;;;;;21.40;99.90;;;;;;5036733;28;20354;-77
2021/07/09 08:44:29;;;;;;;;;;;21.50;99.90;;;;;;5017827;28;19924;-79
2021/07/09 08:46:55;;;;;;;;;;;21.70;99.90;;;;;;5035262;28;19917;-80
2021/07/09 08:49:22;;;;;;;;;;;21.90;99.90;;;;;;5033950;28;19921;-77
2021/07/09 08:51:48;;;;;;;;;;;22.00;99.90;;;;;;5035421;28;19913;-83
2021/07/09 08:54:14;;;;;;;;;;;22.10;99.90;;;;;;5036609;28;20339;-82
2021/07/09 08:56:40;;;;;;;;;;;22.00;99.90;;;;;;5035371;28;19943;-81
2021/07/09 08:59:06;;;;;;;;;;;22.10;99.90;;;;;;5050608;28;19924;-83
2021/07/09 09:01:46;;;;;;;;;;;22.20;99.90;;;;;;5035418;28;21546;-83
2021/07/09 09:04:11;;;;;;;;;;;22.30;99.90;;;;;;5034545;28;19921;-77
2021/07/09 09:06:37;;;;;;;;;;;22.40;99.90;;;;;;5047601;28;20323;-81
2021/07/09 09:09:18;;;;;;;;;;;22.50;99.90;;;;;;5022506;28;20304;-78
2021/07/09 09:12:01;;;;;;;;;;;22.70;99.90;;;;;;5034596;28;20296;-77
2021/07/09 09:14:27;;;;;;;;;;;22.70;99.90;;;;;;5035319;28;19913;-78
2021/07/09 09:16:52;;;;;;;;;;;22.90;99.90;;;;;;5017145;28;20267;-78
2021/07/09 09:19:19;;;;;;;;;;;23.00;99.90;;;;;;5050529;28;19928;-80
2021/07/09 09:21:44;;;;;;;;;;;23.10;99.90;;;;;;5034461;28;19917;-76
2021/07/09 09:24:10;;;;;;;;;;;23.00;99.90;;;;;;5034300;28;19913;-76
2021/07/09 09:26:53;;;;;;;;;;;23.10;99.90;;;;;;5033778;28;19913;-81
2021/07/09 09:29:25;;;;;;;;;;;23.00;99.90;;;;;;5033472;28;19924;-82
2021/07/09 09:31:54;;;;;;;;;;;22.80;99.90;;;;;;5034788;28;19917;-83
2021/07/09 09:34:39;;;;;;;;;;;22.90;99.90;;;;;;5037129;28;20346;-77
2021/07/09 09:37:06;;;;;;;;;;;23.00;99.90;;;;;;5034780;28;19984;-88
2021/07/09 09:39:32;;;;;;;;;;;23.20;99.90;;;;;;5033996;28;20323;-84
2021/07/09 09:42:07;;;;;;;;;;;23.20;99.90;;;;;;5034743;28;19919;-83
2021/07/09 09:44:32;;;;;;;;;;;23.30;99.90;;;;;;5051574;28;19949;-79
2021/07/09 09:47:15;;;;;;;;;;;23.40;99.90;;;;;;5029734;28;19956;-82
2021/07/09 09:49:41;;;;;;;;;;;23.40;99.90;;;;;;5025187;28;20304;-79
2021/07/09 09:52:07;;;;;;;;;;;23.50;99.90;;;;;;5004886;28;19959;-84
2021/07/09 09:54:33;;;;;;;;;;;23.50;99.90;;;;;;5036409;28;19917;-77
2021/07/09 09:56:59;;;;;;;;;;;23.50;99.90;;;;;;5018811;28;19921;-87
2021/07/09 09:59:25;;;;;;;;;;;23.70;99.90;;;;;;5019390;28;19943;-82
2021/07/09 10:01:51;;;;;;;;;;;23.90;99.90;;;;;;5018077;28;19952;-83
2021/07/09 10:04:16;;;;;;;;;;;23.90;99.90;;;;;;5032381;28;20312;-87
2021/07/09 10:06:45;;;;;;;;;;;24.00;99.90;;;;;;5037385;28;19917;-83
2021/07/09 10:09:14;;;;;;;;;;;24.00;99.90;;;;;;5010382;28;19921;-78
2021/07/09 10:11:40;;;;;;;;;;;23.80;99.90;;;;;;5036900;28;19909;-89
2021/07/09 10:14:09;;;;;;;;;;;23.70;99.90;;;;;;5034749;28;19913;-87
2021/07/09 10:16:35;;;;;;;;;;;23.50;99.90;;;;;;5018815;28;20223;-78
2021/07/09 10:19:01;;;;;;;;;;;23.40;99.90;;;;;;5021276;28;19918;-78
2021/07/09 10:21:28;;;;;;;;;;;23.50;99.90;;;;;;5036406;28;19917;-85
2021/07/09 10:23:53;;;;;;;;;;;23.70;99.90;;;;;;5019704;28;19924;-79
2021/07/09 10:26:19;;;;;;;;;;;23.80;99.90;;;;;;5037610;28;20244;-84
2021/07/09 10:29:03;;;;;;;;;;;23.70;99.90;;;;;;5036518;28;19932;-79
2021/07/09 10:31:36;;;;;;;;;;;23.30;99.90;;;;;;5032547;28;19917;-86
2021/07/09 10:34:20;;;;;;;;;;;23.00;99.90;;;;;;5031231;28;20000;-86
2021/07/09 10:36:56;;;;;;;;;;;22.90;99.90;;;;;;5034548;28;19917;-83
2021/07/09 10:39:31;;;;;;;;;;;22.90;99.90;;;;;;5033414;28;19917;-83
2021/07/09 10:42:10;;;;;;;;;;;23.10;99.90;;;;;;5031351;28;19925;-84
2021/07/09 10:44:36;;;;;;;;;;;23.20;99.90;;;;;;5020856;28;19913;-87
2021/07/09 10:47:15;;;;;;;;;;;23.10;99.90;;;;;;5035382;28;20012;-80
2021/07/09 10:49:50;;;;;;;;;;;23.10;99.90;;;;;;5035565;28;19956;-86
2021/07/09 10:52:34;;;;;;;;;;;23.00;99.90;;;;;;5017822;28;20016;-84
2021/07/09 10:54:59;;;;;;;;;;;23.10;99.90;;;;;;5035110;28;19928;-83
2021/07/09 10:57:25;;;;;;;;;;;23.10;99.90;;;;;;5028710;28;19927;-84
2021/07/09 11:00:09;;;;;;;;;;;23.40;99.90;;;;;;5033088;28;19928;-78
2021/07/09 11:02:57;;;;;;;;;;;23.70;99.90;;;;;;5034579;28;19967;-84
2021/07/09 11:05:41;;;;;;;;;;;24.00;99.90;;;;;;5032817;28;19923;-81
2021/07/09 11:08:25;;;;;;;;;;;24.30;99.90;;;;;;5014535;28;20000;-85
2021/07/09 11:10:55;;;;;;;;;;;24.50;99.90;;;;;;5033240;28;19921;-85
2021/07/09 11:13:49;;;;;;;;;;;24.40;99.90;;;;;;5047425;28;19921;-86
2021/07/09 11:16:22;;;;;;;;;;;24.60;99.90;;;;;;5014975;28;19964;-83
2021/07/09 11:18:49;;;;;;;;;;;24.60;99.90;;;;;;5033257;28;19945;-80
2021/07/09 11:21:35;;;;;;;;;;;24.50;99.90;;;;;;5034396;28;19917;-85
2021/07/09 11:24:05;;;;;;;;;;;24.40;99.90;;;;;;5021383;28;20054;-86
2021/07/09 11:26:31;;;;;;;;;;;24.20;99.90;;;;;;5035379;28;19913;-83
2021/07/09 11:28:57;;;;;;;;;;;24.10;99.90;;;;;;5035911;28;19913;-83
2021/07/09 11:31:30;;;;;;;;;;;24.00;99.90;;;;;;5034653;28;19924;-93
2021/07/09 11:34:02;;;;;;;;;;;23.80;99.90;;;;;;5032265;28;19917;-87
2021/07/09 11:36:28;;;;;;;;;;;23.70;99.90;;;;;;5029925;28;19917;-86
2021/07/09 11:39:04;;;;;;;;;;;23.60;99.90;;;;;;5031861;28;19921;-84
2021/07/09 11:41:30;;;;;;;;;;;23.80;99.90;;;;;;5050112;28;20351;-87
2021/07/09 11:43:55;;;;;;;;;;;23.90;99.90;;;;;;5033954;28;19917;-86
2021/07/09 11:46:21;;;;;;;;;;;23.80;99.90;;;;;;5039080;28;19909;-85
2021/07/09 11:48:46;;;;;;;;;;;23.60;99.90;;;;;;5035259;28;20003;-88
2021/07/09 11:51:12;;;;;;;;;;;23.60;99.90;;;;;;5034194;28;19916;-82
2021/07/09 11:53:37;;;;;;;;;;;23.50;99.90;;;;;;5034415;28;20326;-76
2021/07/09 11:56:13;;;;;;;;;;;23.50;99.90;;;;;;5034850;28;20544;-77
2021/07/09 11:58:38;;;;;;;;;;;23.60;99.90;;;;;;5018694;28;19928;-87
2021/07/09 12:01:14;;;;;;;;;;;23.70;99.90;;;;;;5016103;28;19913;-84
2021/07/09 12:03:46;;;;;;;;;;;24.10;99.90;;;;;;5022483;28;19945;-85
2021/07/09 12:06:19;;;;;;;;;;;24.10;99.90;;;;;;5039715;28;20382;-83
2021/07/09 12:08:55;;;;;;;;;;;23.40;99.90;;;;;;5040521;28;19917;-84
2021/07/09 12:11:21;;;;;;;;;;;23.10;99.90;;;;;;5024077;28;19963;-80
2021/07/09 12:14:03;;;;;;;;;;;23.10;99.90;;;;;;5015663;28;19913;-83
2021/07/09 12:16:28;;;;;;;;;;;22.80;99.90;;;;;;5036999;28;19923;-83
2021/07/09 12:18:54;;;;;;;;;;;22.40;99.90;;;;;;5031302;28;20027;-85
2021/07/09 12:21:21;;;;;;;;;;;22.50;99.90;;;;;;5023165;28;19917;-78
2021/07/09 12:23:46;;;;;;;;;;;23.00;99.90;;;;;;5020642;28;20032;-87
2021/07/09 12:26:12;;;;;;;;;;;23.40;99.90;;;;;;5039716;28;20359;-81
2021/07/09 12:28:39;;;;;;;;;;;23.70;99.90;;;;;;5039174;28;19919;-77
2021/07/09 12:31:05;;;;;;;;;;;24.00;99.90;;;;;;5037305;28;19992;-83
2021/07/09 12:33:36;;;;;;;;;;;24.10;99.90;;;;;;5040544;28;19968;-84
2021/07/09 12:36:11;;;;;;;;;;;24.40;99.90;;;;;;5039185;28;20008;-86
2021/07/09 12:38:38;;;;;;;;;;;24.50;99.90;;;;;;5038784;28;19924;-87
2021/07/09 12:41:05;;;;;;;;;;;24.70;99.90;;;;;;5040302;28;19920;-79
2021/07/09 12:43:30;;;;;;;;;;;24.70;99.90;;;;;;5041260;28;19974;-85
2021/07/09 12:46:04;;;;;;;;;;;24.80;99.90;;;;;;5039912;28;19953;-83
2021/07/09 12:48:36;;;;;;;;;;;24.70;99.90;;;;;;5023227;28;19909;-76
2021/07/09 12:51:23;;;;;;;;;;;24.60;99.90;;;;;;5041290;28;19963;-89
2021/07/09 12:53:49;;;;;;;;;;;24.40;99.90;;;;;;5039748;28;19917;-85
2021/07/09 12:56:15;;;;;;;;;;;24.40;99.90;;;;;;5039922;28;19917;-89
2021/07/09 12:58:41;;;;;;;;;;;24.40;99.90;;;;;;5040228;28;20303;-82
2021/07/09 13:01:07;;;;;;;;;;;24.50;99.90;;;;;;5040547;28;19919;-78
2021/07/09 13:03:33;;;;;;;;;;;24.60;99.90;;;;;;5038404;28;20338;-77
2021/07/09 13:06:04;;;;;;;;;;;24.70;99.90;;;;;;5040877;28;19917;-81
2021/07/09 13:08:30;;;;;;;;;;;24.80;99.90;;;;;;5040702;28;19959;-90
2021/07/09 13:11:22;;;;;;;;;;;24.90;99.90;;;;;;5023178;28;19917;-86
2021/07/09 13:13:52;;;;;;;;;;;25.00;99.90;;;;;;5033711;28;20223;-89
2021/07/09 13:16:19;;;;;;;;;;;25.00;99.90;;;;;;5032495;28;19953;-89
2021/07/09 13:18:55;;;;;;;;;;;25.10;99.90;;;;;;5033674;28;19925;-85
2021/07/09 13:21:22;;;;;;;;;;;25.20;99.90;;;;;;5036058;28;20381;-85
2021/07/09 13:24:08;;;;;;;;;;;25.20;99.90;;;;;;5035647;28;19913;-81
2021/07/09 13:26:37;;;;;;;;;;;25.00;99.90;;;;;;5030844;28;20316;-89
2021/07/09 13:29:05;;;;;;;;;;;25.10;99.90;;;;;;5036849;28;19944;-83
2021/07/09 13:31:30;;;;;;;;;;;25.20;99.90;;;;;;5037404;28;20350;-80
2021/07/09 13:33:56;;;;;;;;;;;25.10;99.90;;;;;;5037708;28;19913;-87
2021/07/09 13:36:33;;;;;;;;;;;25.30;99.90;;;;;;5052807;28;19932;-89
2021/07/09 13:38:58;;;;;;;;;;;24.90;99.90;;;;;;5037770;28;19924;-86
2021/07/09 13:41:24;;;;;;;;;;;24.80;99.90;;;;;;5035845;28;19996;-85
2021/07/09 13:43:50;;;;;;;;;;;24.50;99.90;;;;;;5052225;28;19917;-85
2021/07/09 13:46:16;;;;;;;;;;;24.50;99.90;;;;;;5037008;28;19917;-81
2021/07/09 13:48:41;;;;;;;;;;;24.70;99.90;;;;;;5036668;28;19975;-88
2021/07/09 13:51:07;;;;;;;;;;;24.70;99.90;;;;;;5037258;28;19917;-87
2021/07/09 13:53:34;;;;;;;;;;;24.80;99.90;;;;;;5035396;28;19924;-92
2021/07/09 13:56:01;;;;;;;;;;;24.90;99.90;;;;;;5038006;28;19917;-88
2021/07/09 13:58:27;;;;;;;;;;;24.70;99.90;;;;;;5038518;28;19925;-89
2021/07/09 14:00:52;;;;;;;;;;;24.50;99.90;;;;;;5019409;28;19921;-92
2021/07/09 14:03:18;;;;;;;;;;;24.50;99.90;;;;;;5036336;28;19957;-87
2021/07/09 14:05:44;;;;;;;;;;;24.30;99.90;;;;;;5036071;28;19967;-88
2021/07/09 14:08:10;;;;;;;;;;;24.20;99.90;;;;;;5019755;28;19920;-85
2021/07/09 14:10:35;;;;;;;;;;;24.10;99.90;;;;;;5036140;28;19913;-88
2021/07/09 14:13:01;;;;;;;;;;;24.10;99.90;;;;;;5031237;28;20213;-94
2021/07/09 14:15:30;;;;;;;;;;;24.00;99.90;;;;;;5012915;28;19909;-86
2021/07/09 14:17:56;;;;;;;;;;;23.90;99.90;;;;;;5021007;28;19913;-87